Time;durP1;ratioP1;P1;durP2;ratioP2;P2;SDS_P1;SDS_P2;PMS_P1;PMS_P2;Temp;Humidity;BMP_temperature;BMP_pressure;BME280_temperature;BME280_humidity;BME280_pressure;Samples;Min_cycle;Max_cycle;Signal;HPM_P1;HPM_P2
2024/04/04 00:00:42;;;;;;;0.87;0.60;;;;;;;;;;6104492;23;20154;-90
2024/04/04 00:03:48;;;;;;;2.07;0.80;;;;;;;;;;6120535;23;20186;-90
2024/04/04 00:06:53;;;;;;;0.97;0.60;;;;;;;;;;6087899;23;20155;-91
2024/04/04 00:10:00;;;;;;;1.27;0.80;;;;;;;;;;6097070;23;20189;-89
2024/04/04 00:13:07;;;;;;;2.07;0.73;;;;;;;;;;6104013;23;20150;-89
2024/04/04 00:16:11;;;;;;;1.80;0.70;;;;;;;;;;6103644;23;20158;-89
2024/04/04 00:19:15;;;;;;;1.60;0.70;;;;;;;;;;6082726;23;20194;-89
2024/04/04 00:22:20;;;;;;;1.70;0.57;;;;;;;;;;6104436;23;20176;-90
2024/04/04 00:25:24;;;;;;;1.00;0.60;;;;;;;;;;6120293;23;20159;-90
2024/04/04 00:28:28;;;;;;;1.10;0.60;;;;;;;;;;6086434;23;20158;-90
2024/04/04 00:31:32;;;;;;;2.17;0.87;;;;;;;;;;6087446;23;20613;-90
2024/04/04 00:34:36;;;;;;;2.77;0.87;;;;;;;;;;6104128;23;20150;-90
2024/04/04 00:37:44;;;;;;;1.40;0.97;;;;;;;;;;6104259;23;20593;-89
2024/04/04 00:40:49;;;;;;;4.67;0.70;;;;;;;;;;6087152;23;20158;-90
2024/04/04 00:43:53;;;;;;;1.83;0.70;;;;;;;;;;6087042;23;20186;-89
2024/04/04 00:46:56;;;;;;;1.50;0.70;;;;;;;;;;6103822;23;20158;-90
2024/04/04 00:50:06;;;;;;;1.43;0.67;;;;;;;;;;6079874;23;20194;-90
2024/04/04 00:53:11;;;;;;;1.70;0.70;;;;;;;;;;6086924;23;20154;-90
2024/04/04 00:56:15;;;;;;;1.67;0.60;;;;;;;;;;6103659;23;20159;-90
2024/04/04 00:59:19;;;;;;;1.83;0.60;;;;;;;;;;6082115;23;20189;-89
2024/04/04 01:02:23;;;;;;;3.27;0.90;;;;;;;;;;6103194;23;20158;-90
2024/04/04 01:05:27;;;;;;;2.20;0.70;;;;;;;;;;6087002;23;20593;-90
2024/04/04 01:08:32;;;;;;;2.83;0.90;;;;;;;;;;6085401;23;20155;-90
2024/04/04 01:11:36;;;;;;;2.80;0.60;;;;;;;;;;6086288;23;20154;-90
2024/04/04 01:14:40;;;;;;;2.07;0.90;;;;;;;;;;6080919;23;20173;-89
2024/04/04 01:17:45;;;;;;;0.70;0.60;;;;;;;;;;6086389;23;20471;-90
2024/04/04 01:20:49;;;;;;;2.70;0.70;;;;;;;;;;6102828;23;20154;-90
2024/04/04 01:23:53;;;;;;;3.90;0.70;;;;;;;;;;6086627;23;20637;-90
2024/04/04 01:26:57;;;;;;;1.97;0.60;;;;;;;;;;6102705;23;20150;-90
2024/04/04 01:30:01;;;;;;;1.30;0.60;;;;;;;;;;6079400;23;20189;-90
2024/04/04 01:33:05;;;;;;;2.83;0.80;;;;;;;;;;6086362;23;20475;-90
2024/04/04 01:36:09;;;;;;;3.00;0.60;;;;;;;;;;6102588;23;20154;-90
2024/04/04 01:39:13;;;;;;;1.17;0.60;;;;;;;;;;6115304;23;20193;-90
2024/04/04 01:42:17;;;;;;;1.57;0.67;;;;;;;;;;6086181;23;20613;-90
2024/04/04 01:45:22;;;;;;;2.13;0.70;;;;;;;;;;6119239;23;20182;-90
2024/04/04 01:48:26;;;;;;;1.27;0.70;;;;;;;;;;6085761;23;20158;-91
2024/04/04 01:51:29;;;;;;;3.83;0.77;;;;;;;;;;6119954;23;20158;-91
2024/04/04 01:54:33;;;;;;;3.60;0.70;;;;;;;;;;6086812;23;20158;-88
2024/04/04 01:57:37;;;;;;;1.60;0.70;;;;;;;;;;6085702;23;20158;-88
2024/04/04 02:00:41;;;;;;;2.00;1.03;;;;;;;;;;6085475;23;20154;-89
2024/04/04 02:03:45;;;;;;;4.53;1.00;;;;;;;;;;6119307;23;20186;-88
2024/04/04 02:06:49;;;;;;;2.00;0.60;;;;;;;;;;6102436;23;20158;-89
2024/04/04 02:09:56;;;;;;;1.40;0.80;;;;;;;;;;6079265;23;20193;-89
2024/04/04 02:13:01;;;;;;;1.63;0.73;;;;;;;;;;6086136;23;20475;-89
2024/04/04 02:16:11;;;;;;;1.83;0.90;;;;;;;;;;6090500;23;20147;-89
2024/04/04 02:19:15;;;;;;;4.17;0.80;;;;;;;;;;6052959;23;20669;-90
2024/04/04 02:22:19;;;;;;;2.03;0.90;;;;;;;;;;6057576;23;20155;-90
2024/04/04 02:25:23;;;;;;;2.27;0.90;;;;;;;;;;6057227;23;20191;-89
2024/04/04 02:28:28;;;;;;;1.73;0.70;;;;;;;;;;6072893;23;20155;-89
2024/04/04 02:31:32;;;;;;;1.23;0.50;;;;;;;;;;6057366;23;20159;-90
2024/04/04 02:34:36;;;;;;;2.00;0.60;;;;;;;;;;6073772;23;20151;-89
2024/04/04 02:37:41;;;;;;;1.67;0.60;;;;;;;;;;6090213;23;20155;-90
2024/04/04 02:40:47;;;;;;;1.17;0.70;;;;;;;;;;6057574;23;20159;-90
2024/04/04 02:43:54;;;;;;;0.90;0.60;;;;;;;;;;6074120;23;20187;-90
2024/04/04 02:46:58;;;;;;;1.83;0.80;;;;;;;;;;6057178;23;20159;-89
2024/04/04 02:50:03;;;;;;;2.00;0.70;;;;;;;;;;6050484;23;20190;-89
2024/04/04 02:53:07;;;;;;;2.63;0.70;;;;;;;;;;6057553;23;20155;-88
2024/04/04 02:56:11;;;;;;;2.27;0.60;;;;;;;;;;6058539;23;20590;-88
2024/04/04 02:59:16;;;;;;;3.37;0.73;;;;;;;;;;6054516;23;20687;-88
2024/04/04 03:02:19;;;;;;;2.07;0.70;;;;;;;;;;6074893;23;20154;-89
2024/04/04 03:05:23;;;;;;;1.27;0.60;;;;;;;;;;6075022;23;20641;-90
2024/04/04 03:08:30;;;;;;;1.03;0.60;;;;;;;;;;6058159;23;20158;-90
2024/04/04 03:11:35;;;;;;;1.00;0.60;;;;;;;;;;6092455;23;20159;-89
2024/04/04 03:14:39;;;;;;;3.33;0.70;;;;;;;;;;6083089;23;20490;-89
2024/04/04 03:17:43;;;;;;;0.90;0.60;;;;;;;;;;6087629;23;20158;-89
2024/04/04 03:20:47;;;;;;;2.07;0.70;;;;;;;;;;6087444;23;20155;-88
2024/04/04 03:23:52;;;;;;;2.17;0.70;;;;;;;;;;6087179;23;20154;-89
2024/04/04 03:26:56;;;;;;;0.97;0.57;;;;;;;;;;6087531;23;20159;-89
2024/04/04 03:30:00;;;;;;;2.43;0.90;;;;;;;;;;6113391;23;20194;-89
2024/04/04 03:33:04;;;;;;;1.63;0.70;;;;;;;;;;6087186;23;20158;-89
2024/04/04 03:36:11;;;;;;;1.93;0.77;;;;;;;;;;6103871;23;20463;-89
2024/04/04 03:39:17;;;;;;;2.20;0.80;;;;;;;;;;6116131;23;20190;-89
2024/04/04 03:42:22;;;;;;;3.13;0.70;;;;;;;;;;6087251;23;20154;-90
2024/04/04 03:45:29;;;;;;;1.67;0.80;;;;;;;;;;6104447;23;20186;-89
2024/04/04 03:48:34;;;;;;;3.97;0.63;;;;;;;;;;6085774;23;20617;-88
2024/04/04 03:51:39;;;;;;;3.20;0.60;;;;;;;;;;6087176;23;20154;-89
2024/04/04 03:54:43;;;;;;;1.70;0.80;;;;;;;;;;6087430;23;20150;-91
2024/04/04 03:57:47;;;;;;;0.97;0.60;;;;;;;;;;6087452;23;20154;-91
2024/04/04 04:00:51;;;;;;;2.37;0.80;;;;;;;;;;6104487;23;20158;-90
2024/04/04 04:03:56;;;;;;;2.83;0.60;;;;;;;;;;6087073;23;20158;-90
2024/04/04 04:07:02;;;;;;;0.80;0.60;;;;;;;;;;6104189;23;20158;-89
2024/04/04 04:10:07;;;;;;;2.13;0.90;;;;;;;;;;6079513;23;20189;-89
2024/04/04 04:13:13;;;;;;;2.63;0.90;;;;;;;;;;6086888;23;20154;-89
2024/04/04 04:16:17;;;;;;;4.07;1.23;;;;;;;;;;6074647;23;20459;-89
2024/04/04 04:19:21;;;;;;;2.80;0.70;;;;;;;;;;6070359;23;20194;-89
2024/04/04 04:22:25;;;;;;;2.60;0.70;;;;;;;;;;6057971;23;20159;-88
2024/04/04 04:25:30;;;;;;;3.47;0.80;;;;;;;;;;6057536;23;20182;-88
2024/04/04 04:28:35;;;;;;;1.97;0.80;;;;;;;;;;6056716;23;20159;-89
2024/04/04 04:31:39;;;;;;;3.60;0.70;;;;;;;;;;6057772;23;20617;-88
2024/04/04 04:34:43;;;;;;;1.43;0.60;;;;;;;;;;6057884;23;20159;-89
2024/04/04 04:37:48;;;;;;;0.87;0.70;;;;;;;;;;6057830;23;20475;-89
2024/04/04 04:41:03;;;;;;;2.17;0.90;;;;;;;;;;6057639;23;20159;-89
2024/04/04 04:44:07;;;;;;;1.33;0.70;;;;;;;;;;6057848;23;20155;-89
2024/04/04 04:47:11;;;;;;;1.03;0.50;;;;;;;;;;6090243;23;20158;-89
2024/04/04 04:50:16;;;;;;;1.13;0.67;;;;;;;;;;6065768;23;20190;-89
2024/04/04 04:53:20;;;;;;;2.20;0.60;;;;;;;;;;6074234;23;20475;-89
2024/04/04 04:56:24;;;;;;;1.97;0.73;;;;;;;;;;6057780;23;20602;-89
2024/04/04 04:59:28;;;;;;;3.20;0.90;;;;;;;;;;6052417;23;20190;-90
2024/04/04 05:02:32;;;;;;;4.23;0.90;;;;;;;;;;6074136;23;20154;-89
2024/04/04 05:05:36;;;;;;;2.13;0.90;;;;;;;;;;6074094;23;20187;-89
2024/04/04 05:08:40;;;;;;;2.13;1.00;;;;;;;;;;6072494;23;20194;-89
2024/04/04 05:11:45;;;;;;;4.93;0.80;;;;;;;;;;6074285;23;20159;-89
2024/04/04 05:14:49;;;;;;;1.03;0.60;;;;;;;;;;6069947;23;20178;-90
2024/04/04 05:17:53;;;;;;;1.63;0.87;;;;;;;;;;6086530;23;20158;-89
2024/04/04 05:21:02;;;;;;;0.70;0.53;;;;;;;;;;6119201;23;20154;-90
2024/04/04 05:24:06;;;;;;;1.27;0.70;;;;;;;;;;6119421;23;20159;-90
2024/04/04 05:27:10;;;;;;;0.80;0.40;;;;;;;;;;6086566;23;20154;-90
2024/04/04 05:30:17;;;;;;;1.63;0.90;;;;;;;;;;6094919;23;20194;-90
2024/04/04 05:33:21;;;;;;;1.57;0.60;;;;;;;;;;6136905;23;20158;-90
2024/04/04 05:36:25;;;;;;;1.43;0.97;;;;;;;;;;6102669;23;20455;-89
2024/04/04 05:39:29;;;;;;;31.07;17.20;;;;;;;;;;6097397;23;20193;-89
2024/04/04 05:42:34;;;;;;;7.87;4.63;;;;;;;;;;6102804;23;20164;-90
2024/04/04 05:45:38;;;;;;;2.10;1.70;;;;;;;;;;6101923;23;20186;-88
2024/04/04 05:48:43;;;;;;;0.93;0.93;;;;;;;;;;6121747;23;20194;-88
2024/04/04 05:51:49;;;;;;;27.10;15.00;;;;;;;;;;6120956;23;20154;-88
2024/04/04 05:54:54;;;;;;;19.00;13.03;;;;;;;;;;6103206;23;20157;-87
2024/04/04 05:58:00;;;;;;;2.37;2.17;;;;;;;;;;6119928;23;20166;-88
2024/04/04 06:01:05;;;;;;;6.63;4.47;;;;;;;;;;6102780;23;20601;-89
2024/04/04 06:04:10;;;;;;;7.27;4.63;;;;;;;;;;6085586;23;20162;-89
2024/04/04 06:07:14;;;;;;;5.97;3.83;;;;;;;;;;6085536;23;20158;-89
2024/04/04 06:19:34;;;;;;;4.00;2.37;;;;;;;;;;6110756;23;20206;-89
2024/04/04 06:23:00;;;;;;;2.40;1.93;;;;;;;;;;6093495;23;20170;-89
2024/04/04 06:31:37;;;;;;;3.10;2.57;;;;;;;;;;6129532;23;20178;-89
2024/04/04 06:35:00;;;;;;;2.13;0.90;;;;;;;;;;6090381;23;20154;-89
2024/04/04 06:38:27;;;;;;;1.73;1.00;;;;;;;;;;6088083;23;20154;-89
2024/04/04 06:41:31;;;;;;;1.60;0.90;;;;;;;;;;6106106;23;20598;-84
2024/04/04 06:44:35;;;;;;;1.57;0.80;;;;;;;;;;6106892;23;20154;-85
2024/04/04 06:47:41;;;;;;;2.47;1.03;;;;;;;;;;6087794;23;20162;-85
2024/04/04 06:50:46;;;;;;;1.53;1.00;;;;;;;;;;6104589;23;20154;-85
2024/04/04 06:53:50;;;;;;;1.47;0.70;;;;;;;;;;6088056;23;20154;-85
2024/04/04 06:56:54;;;;;;;1.67;0.60;;;;;;;;;;6104512;23;20158;-86
2024/04/04 06:59:58;;;;;;;1.97;0.50;;;;;;;;;;6081116;23;20190;-86
2024/04/04 07:03:03;;;;;;;2.60;0.73;;;;;;;;;;6088373;23;20158;-85
2024/04/04 07:06:07;;;;;;;1.33;0.70;;;;;;;;;;6087430;23;20634;-89
2024/04/04 07:09:11;;;;;;;1.90;0.93;;;;;;;;;;6116716;23;20189;-89
2024/04/04 07:12:15;;;;;;;1.37;0.50;;;;;;;;;;6120343;23;20155;-85
2024/04/04 07:15:19;;;;;;;1.50;0.47;;;;;;;;;;6120319;23;20463;-85
2024/04/04 07:18:23;;;;;;;1.43;0.50;;;;;;;;;;6086735;23;20150;-85
2024/04/04 07:21:27;;;;;;;1.73;0.60;;;;;;;;;;6114653;23;20178;-85
2024/04/04 07:24:32;;;;;;;1.40;0.40;;;;;;;;;;6095753;23;20178;-85
2024/04/04 07:27:36;;;;;;;1.77;0.60;;;;;;;;;;6103733;23;20158;-88
2024/04/04 07:30:40;;;;;;;2.00;0.63;;;;;;;;;;6094141;23;20194;-88
2024/04/04 07:33:45;;;;;;;1.93;0.70;;;;;;;;;;6104051;23;20158;-88
2024/04/04 07:36:49;;;;;;;2.53;0.70;;;;;;;;;;6120217;23;20602;-89
2024/04/04 07:39:52;;;;;;;1.27;0.53;;;;;;;;;;6112896;23;20510;-89
2024/04/04 07:42:57;;;;;;;2.00;0.60;;;;;;;;;;6103241;23;20158;-88
2024/04/04 07:46:01;;;;;;;1.57;0.70;;;;;;;;;;6138390;23;20181;-88
2024/04/04 07:49:05;;;;;;;1.87;0.77;;;;;;;;;;6100060;23;20190;-89
2024/04/04 08:50:05;;;;;;;2.43;1.00;;;;;;;;;;6140962;23;20212;-84
2024/04/04 08:53:09;;;;;;;3.13;1.00;;;;;;;;;;6149193;23;20157;-84
2024/04/04 08:56:13;;;;;;;4.50;1.13;;;;;;;;;;6148847;23;20149;-85
2024/04/04 08:59:18;;;;;;;5.17;1.07;;;;;;;;;;6145369;23;20505;-85
2024/04/04 09:02:22;;;;;;;3.63;0.90;;;;;;;;;;6148642;23;20212;-85
2024/04/04 09:05:27;;;;;;;4.53;0.87;;;;;;;;;;6132230;23;20153;-84
2024/04/04 09:08:31;;;;;;;2.90;0.90;;;;;;;;;;6148288;23;20162;-85
2024/04/04 09:11:35;;;;;;;3.33;0.80;;;;;;;;;;6149107;23;20162;-85
2024/04/04 09:14:39;;;;;;;3.07;0.70;;;;;;;;;;6148942;23;20158;-84
2024/04/04 09:17:44;;;;;;;3.57;0.73;;;;;;;;;;6148518;23;20153;-84
2024/04/04 09:20:48;;;;;;;2.93;0.80;;;;;;;;;;6138803;23;20193;-84
2024/04/04 09:23:53;;;;;;;2.50;0.63;;;;;;;;;;6132072;23;20157;-84
2024/04/04 09:26:57;;;;;;;2.10;0.77;;;;;;;;;;6148586;23;20181;-85
2024/04/04 09:30:01;;;;;;;1.50;0.60;;;;;;;;;;6141772;23;20197;-85
2024/04/04 09:33:07;;;;;;;2.83;0.80;;;;;;;;;;6148871;23;20157;-85
2024/04/04 09:36:11;;;;;;;3.47;0.90;;;;;;;;;;6148782;23;20460;-85
2024/04/04 09:39:19;;;;;;;3.77;1.13;;;;;;;;;;6128139;23;20189;-85
2024/04/04 09:42:24;;;;;;;2.30;0.90;;;;;;;;;;6132144;23;20462;-85
2024/04/04 09:45:28;;;;;;;2.93;0.90;;;;;;;;;;6148381;23;20153;-84
2024/04/04 09:48:32;;;;;;;4.33;0.77;;;;;;;;;;6148606;23;20149;-85
2024/04/04 09:51:38;;;;;;;2.10;0.83;;;;;;;;;;6148467;23;20158;-85
2024/04/04 09:54:43;;;;;;;2.90;0.90;;;;;;;;;;6148940;23;20158;-84
2024/04/04 09:57:48;;;;;;;3.27;0.80;;;;;;;;;;6133557;23;20149;-85
2024/04/04 10:00:52;;;;;;;4.20;0.83;;;;;;;;;;6121531;23;20659;-85
2024/04/04 10:03:58;;;;;;;2.03;0.80;;;;;;;;;;6166275;23;20626;-85
2024/04/04 10:07:03;;;;;;;4.73;0.60;;;;;;;;;;6132106;23;20177;-85
2024/04/04 10:10:34;;;;;;;2.93;0.70;;;;;;;;;;6159348;23;20197;-85
2024/04/04 10:13:48;;;;;;;2.87;0.70;;;;;;;;;;6131572;23;20157;-85
2024/04/04 10:16:53;;;;;;;4.00;0.90;;;;;;;;;;6131652;23;20146;-85
2024/04/04 10:19:58;;;;;;;4.30;0.90;;;;;;;;;;6159438;23;20652;-85
2024/04/04 10:23:05;;;;;;;2.80;0.87;;;;;;;;;;6148013;23;20158;-85
2024/04/04 10:26:09;;;;;;;2.50;0.80;;;;;;;;;;6166095;23;20182;-84
2024/04/04 10:29:14;;;;;;;2.37;0.80;;;;;;;;;;6144857;23;20193;-85
2024/04/04 10:32:18;;;;;;;3.93;0.80;;;;;;;;;;6148338;23;20153;-84
2024/04/04 10:35:23;;;;;;;1.73;0.70;;;;;;;;;;6166762;23;20462;-85
2024/04/04 10:38:27;;;;;;;2.37;0.90;;;;;;;;;;6148209;23;20596;-82
2024/04/04 10:41:31;;;;;;;1.90;0.73;;;;;;;;;;6149032;23;20153;-84
2024/04/04 10:44:36;;;;;;;2.17;0.80;;;;;;;;;;6131890;23;20158;-84
2024/04/04 10:47:40;;;;;;;2.87;0.70;;;;;;;;;;6148832;23;20178;-84
2024/04/04 10:50:44;;;;;;;3.40;0.90;;;;;;;;;;6126231;23;20201;-84
2024/04/04 10:53:48;;;;;;;3.53;0.80;;;;;;;;;;6135413;23;20466;-85
2024/04/04 10:56:53;;;;;;;3.43;1.00;;;;;;;;;;6152409;23;20146;-84
2024/04/04 11:00:13;;;;;;;1.90;0.73;;;;;;;;;;6130290;23;20193;-85
2024/04/04 11:03:19;;;;;;;3.07;0.80;;;;;;;;;;6118238;23;20158;-84
2024/04/04 11:06:27;;;;;;;4.23;0.87;;;;;;;;;;6134999;23;20208;-84
2024/04/04 11:09:32;;;;;;;3.73;0.93;;;;;;;;;;6130981;23;20668;-84
2024/04/04 11:12:39;;;;;;;1.97;0.60;;;;;;;;;;6118561;23;20158;-85
2024/04/04 11:15:43;;;;;;;1.73;0.67;;;;;;;;;;6136769;23;20158;-84
2024/04/04 11:18:48;;;;;;;1.63;0.53;;;;;;;;;;6135509;23;20155;-85
2024/04/04 11:21:53;;;;;;;4.23;0.80;;;;;;;;;;6103686;23;20154;-85
2024/04/04 11:24:57;;;;;;;3.13;1.00;;;;;;;;;;6120300;23;20158;-85
2024/04/04 11:28:01;;;;;;;1.30;0.70;;;;;;;;;;6136759;23;20182;-85
2024/04/04 11:31:08;;;;;;;3.63;0.90;;;;;;;;;;6137958;23;20158;-86
2024/04/04 11:34:20;;;;;;;2.17;0.77;;;;;;;;;;6120127;23;20154;-86
2024/04/04 11:37:30;;;;;;;3.07;0.60;;;;;;;;;;6121619;23;20154;-86
2024/04/04 11:40:34;;;;;;;1.90;0.60;;;;;;;;;;6114262;23;20194;-86
2024/04/04 11:43:39;;;;;;;1.73;0.70;;;;;;;;;;6120136;23;20154;-87
2024/04/04 11:46:43;;;;;;;2.50;0.87;;;;;;;;;;6120338;23;20178;-85
2024/04/04 11:49:48;;;;;;;1.83;0.70;;;;;;;;;;6157477;23;20204;-85
2024/04/04 11:52:52;;;;;;;1.50;0.70;;;;;;;;;;6149724;23;20470;-85
2024/04/04 11:55:57;;;;;;;4.63;1.23;;;;;;;;;;6166840;23;20158;-85
2024/04/04 11:59:02;;;;;;;3.43;0.90;;;;;;;;;;6146971;23;20189;-85
2024/04/04 12:02:06;;;;;;;3.77;0.73;;;;;;;;;;6166746;23;20161;-85
2024/04/04 12:05:09;;;;;;;2.93;1.03;;;;;;;;;;6149743;23;20157;-85
2024/04/04 12:08:14;;;;;;;4.10;0.90;;;;;;;;;;6150401;23;20185;-85
2024/04/04 12:11:18;;;;;;;1.97;0.70;;;;;;;;;;6149939;23;20158;-85
2024/04/04 12:14:27;;;;;;;4.80;0.77;;;;;;;;;;6150240;23;20153;-85
2024/04/04 12:17:32;;;;;;;2.63;0.93;;;;;;;;;;6149895;23;20150;-85
2024/04/04 12:20:36;;;;;;;3.37;0.80;;;;;;;;;;6123216;23;20193;-85
2024/04/04 12:23:40;;;;;;;2.80;0.50;;;;;;;;;;6132275;23;20154;-85
2024/04/04 12:26:47;;;;;;;1.43;0.77;;;;;;;;;;6115302;23;20181;-85
2024/04/04 12:29:52;;;;;;;2.90;0.80;;;;;;;;;;6126374;23;20193;-85
2024/04/04 12:32:56;;;;;;;2.37;0.90;;;;;;;;;;6131906;23;20213;-85
2024/04/04 12:36:00;;;;;;;3.53;0.73;;;;;;;;;;6132110;23;20469;-85
2024/04/04 12:39:08;;;;;;;4.40;0.90;;;;;;;;;;6129334;23;20185;-85
2024/04/04 12:42:12;;;;;;;1.47;0.60;;;;;;;;;;6131924;23;20157;-87
2024/04/04 12:45:16;;;;;;;1.97;0.70;;;;;;;;;;6131458;23;20482;-85
2024/04/04 12:48:20;;;;;;;3.57;0.77;;;;;;;;;;6131338;23;20185;-86
2024/04/04 12:51:26;;;;;;;2.17;0.50;;;;;;;;;;6121815;23;20181;-85
2024/04/04 12:54:30;;;;;;;1.60;0.80;;;;;;;;;;6131525;23;20597;-85
2024/04/04 12:57:35;;;;;;;4.23;0.60;;;;;;;;;;6131339;23;20154;-85
2024/04/04 13:00:39;;;;;;;4.83;1.17;;;;;;;;;;6122841;23;20190;-86
2024/04/04 13:03:43;;;;;;;4.00;0.93;;;;;;;;;;6114964;23;20158;-86
2024/04/04 13:06:48;;;;;;;2.90;1.00;;;;;;;;;;6115453;23;20157;-86
2024/04/04 13:09:52;;;;;;;2.63;0.77;;;;;;;;;;6125581;23;20185;-86
2024/04/04 13:12:56;;;;;;;1.07;0.70;;;;;;;;;;6115148;23;20267;-85
2024/04/04 13:16:00;;;;;;;2.30;0.80;;;;;;;;;;6131856;23;20604;-85
2024/04/04 13:19:05;;;;;;;1.33;0.70;;;;;;;;;;6162627;23;20189;-86
2024/04/04 13:22:11;;;;;;;3.03;0.97;;;;;;;;;;6117334;23;20454;-85
2024/04/04 13:25:19;;;;;;;4.10;0.80;;;;;;;;;;6165938;23;20154;-85
2024/04/04 13:28:25;;;;;;;4.23;0.90;;;;;;;;;;6131682;23;20185;-85
2024/04/04 13:31:30;;;;;;;3.27;0.93;;;;;;;;;;6148804;23;20154;-86
2024/04/04 13:34:34;;;;;;;3.33;0.97;;;;;;;;;;6131423;23;20150;-86
2024/04/04 13:37:41;;;;;;;1.87;0.83;;;;;;;;;;6131267;23;20153;-86
2024/04/04 13:41:24;;;;;;;1.40;0.90;;;;;;;;;;6134410;23;20153;-86
2024/04/04 13:44:30;;;;;;;4.30;1.23;;;;;;;;;;6131206;23;20153;-85
2024/04/04 13:47:34;;;;;;;3.83;0.80;;;;;;;;;;6147385;23;20502;-86
2024/04/04 13:50:38;;;;;;;3.80;1.00;;;;;;;;;;6110374;23;20641;-84
2024/04/04 13:53:43;;;;;;;4.37;0.90;;;;;;;;;;6136885;23;20159;-85
2024/04/04 13:56:47;;;;;;;3.23;0.83;;;;;;;;;;6119886;23;20158;-84
2024/04/04 13:59:52;;;;;;;3.13;0.90;;;;;;;;;;6130185;23;20186;-83
2024/04/04 14:02:55;;;;;;;4.40;1.07;;;;;;;;;;6136309;23;20150;-83
2024/04/04 14:05:59;;;;;;;3.10;0.90;;;;;;;;;;6119415;23;20150;-85
2024/04/04 14:09:56;;;;;;;3.53;1.20;;;;;;;;;;6133121;23;20206;-86
2024/04/04 14:13:27;;;;;;;2.77;1.17;;;;;;;;;;6118302;23;20154;-85
2024/04/04 14:16:58;;;;;;;4.60;1.03;;;;;;;;;;6151812;23;20471;-85
2024/04/04 14:20:06;;;;;;;2.40;0.90;;;;;;;;;;6094936;23;20649;-86
2024/04/04 14:23:12;;;;;;;3.43;0.90;;;;;;;;;;6118313;23;20155;-86
2024/04/04 14:26:42;;;;;;;5.17;0.93;;;;;;;;;;6101512;23;20597;-84
2024/04/04 14:29:46;;;;;;;3.03;0.93;;;;;;;;;;6112994;23;20660;-85
2024/04/04 14:32:50;;;;;;;2.17;0.90;;;;;;;;;;6101963;23;20158;-84
2024/04/04 14:36:04;;;;;;;4.23;0.90;;;;;;;;;;6102357;23;20159;-85
2024/04/04 14:39:12;;;;;;;2.23;0.50;;;;;;;;;;6099913;23;20190;-85
2024/04/04 14:42:16;;;;;;;1.63;0.60;;;;;;;;;;6118802;23;20154;-86
2024/04/04 14:45:21;;;;;;;1.23;0.67;;;;;;;;;;6118574;23;20158;-85
2024/04/04 14:48:27;;;;;;;3.00;0.90;;;;;;;;;;6116986;23;20202;-86
2024/04/04 14:51:31;;;;;;;1.87;0.60;;;;;;;;;;6088067;23;20210;-86
2024/04/04 14:56:07;;;;;;;5.10;0.90;;;;;;;;;;6119616;23;20477;-86
2024/04/04 14:59:15;;;;;;;1.70;0.87;;;;;;;;;;6108230;23;20154;-86
2024/04/04 15:02:52;;;;;;;1.53;0.50;;;;;;;;;;6112669;23;20155;-86
2024/04/04 15:06:40;;;;;;;3.93;1.40;;;;;;;;;;6111464;23;20174;-86
2024/04/04 15:09:53;;;;;;;7.47;0.80;;;;;;;;;;6093859;23;20195;-86
2024/04/04 15:12:59;;;;;;;3.77;0.80;;;;;;;;;;6079779;23;20155;-86
2024/04/04 15:16:05;;;;;;;3.03;0.60;;;;;;;;;;6094390;23;20155;-86
2024/04/04 15:19:24;;;;;;;2.87;0.60;;;;;;;;;;6096527;23;20155;-86
2024/04/04 15:23:08;;;;;;;1.37;0.90;;;;;;;;;;6050518;23;20174;-86
2024/04/04 15:26:57;;;;;;;1.47;0.80;;;;;;;;;;6097205;23;20598;-86
2024/04/04 15:30:50;;;;;;;1.63;0.60;;;;;;;;;;6077726;23;20654;-86
2024/04/04 15:35:04;;;;;;;3.07;0.73;;;;;;;;;;6115325;23;20155;-86
2024/04/04 15:39:27;;;;;;;1.33;0.50;;;;;;;;;;6098842;23;20151;-86
2024/04/04 15:42:54;;;;;;;2.50;1.03;;;;;;;;;;6105400;23;20167;-85
2024/04/04 15:45:59;;;;;;;90.90;37.47;;;;;;;;;;6081283;23;20158;-83
2024/04/04 15:49:07;;;;;;;12.53;6.90;;;;;;;;;;6095392;23;20189;-85
2024/04/04 15:53:15;;;;;;;2.97;1.70;;;;;;;;;;6132540;23;20175;-85
2024/04/04 15:57:28;;;;;;;2.10;1.50;;;;;;;;;;6122988;23;20193;-87
2024/04/04 16:01:23;;;;;;;3.43;1.20;;;;;;;;;;6085126;23;20201;-87
2024/04/04 16:04:37;;;;;;;6.23;1.70;;;;;;;;;;6115691;23;20166;-86
2024/04/04 16:11:39;;;;;;;3.17;0.97;;;;;;;;;;6106183;23;20186;-86
2024/04/04 16:14:46;;;;;;;2.23;1.00;;;;;;;;;;6108138;23;20467;-87
2024/04/04 16:17:50;;;;;;;2.10;1.03;;;;;;;;;;6121802;23;20155;-87
2024/04/04 16:20:54;;;;;;;4.00;2.40;;;;;;;;;;6116946;23;20193;-86
2024/04/04 16:23:58;;;;;;;2.87;1.40;;;;;;;;;;6123282;23;20162;-86
2024/04/04 16:27:05;;;;;;;2.40;1.07;;;;;;;;;;6124021;23;20154;-86
2024/04/04 16:30:09;;;;;;;2.67;0.77;;;;;;;;;;6137464;23;20189;-85
2024/04/04 16:33:13;;;;;;;1.20;0.70;;;;;;;;;;6124864;23;20158;-85
2024/04/04 16:36:18;;;;;;;4.40;0.97;;;;;;;;;;6126183;23;20158;-86
2024/04/04 16:39:24;;;;;;;1.33;0.83;;;;;;;;;;6107369;23;20459;-85
2024/04/04 16:43:00;;;;;;;3.33;0.90;;;;;;;;;;6123576;23;20162;-85
2024/04/04 16:46:06;;;;;;;1.53;0.70;;;;;;;;;;6110514;23;20151;-85
2024/04/04 16:49:10;;;;;;;1.40;0.47;;;;;;;;;;6090213;23;20186;-86
2024/04/04 16:52:16;;;;;;;0.93;0.60;;;;;;;;;;6108354;23;20158;-87
2024/04/04 16:55:24;;;;;;;1.63;0.80;;;;;;;;;;6122818;23;20154;-86
2024/04/04 16:58:28;;;;;;;7.17;5.60;;;;;;;;;;6102055;23;20178;-86
2024/04/04 17:01:35;;;;;;;1.47;1.33;;;;;;;;;;6103178;23;20226;-86
2024/04/04 17:04:39;;;;;;;1.83;1.27;;;;;;;;;;6095285;23;20159;-85
2024/04/04 17:07:44;;;;;;;2.03;0.73;;;;;;;;;;6111771;23;20159;-85
2024/04/04 17:10:50;;;;;;;1.10;0.70;;;;;;;;;;6123062;23;20197;-86
2024/04/04 17:13:57;;;;;;;1.37;0.90;;;;;;;;;;6110344;23;20159;-86
2024/04/04 17:17:02;;;;;;;2.73;0.90;;;;;;;;;;6095445;23;20159;-87
2024/04/04 17:20:08;;;;;;;2.30;0.60;;;;;;;;;;6107558;23;20190;-87
2024/04/04 17:23:15;;;;;;;1.17;0.87;;;;;;;;;;6126912;23;20155;-86
2024/04/04 17:26:19;;;;;;;2.23;1.97;;;;;;;;;;6076877;23;20155;-87
2024/04/04 17:29:24;;;;;;;1.00;0.57;;;;;;;;;;6109263;23;20186;-85
2024/04/04 17:32:29;;;;;;;2.20;0.70;;;;;;;;;;6109850;23;20163;-86
2024/04/04 17:35:35;;;;;;;1.67;0.60;;;;;;;;;;6126890;23;20155;-87
2024/04/04 17:38:40;;;;;;;1.27;0.70;;;;;;;;;;6110677;23;20151;-86
2024/04/04 17:41:44;;;;;;;14.40;5.67;;;;;;;;;;6101123;23;20499;-86
2024/04/04 17:44:51;;;;;;;9.20;3.67;;;;;;;;;;6126658;23;20155;-86
2024/04/04 17:47:56;;;;;;;1.53;0.97;;;;;;;;;;6109956;23;20155;-86
2024/04/04 17:51:01;;;;;;;0.83;0.60;;;;;;;;;;6085622;23;20186;-86
2024/04/04 17:54:07;;;;;;;1.43;0.80;;;;;;;;;;6111444;23;20154;-86
2024/04/04 17:57:12;;;;;;;1.87;0.80;;;;;;;;;;6117755;23;20174;-85
2024/04/04 18:00:17;;;;;;;1.27;0.90;;;;;;;;;;6136914;23;20186;-86
2024/04/04 18:03:22;;;;;;;2.10;0.70;;;;;;;;;;6105564;23;20158;-86
2024/04/04 18:06:27;;;;;;;2.57;0.83;;;;;;;;;;6140375;23;20150;-85
2024/04/04 18:09:32;;;;;;;2.13;0.70;;;;;;;;;;6105999;23;20178;-86
2024/04/04 18:12:36;;;;;;;1.17;0.70;;;;;;;;;;6122032;23;20154;-86
2024/04/04 18:15:42;;;;;;;2.10;0.70;;;;;;;;;;6123205;23;20158;-86
2024/04/04 18:18:46;;;;;;;2.30;0.70;;;;;;;;;;6105124;23;20154;-86
2024/04/04 18:21:50;;;;;;;1.77;0.90;;;;;;;;;;6122622;23;20158;-85
2024/04/04 18:24:55;;;;;;;1.30;0.70;;;;;;;;;;6142057;23;20158;-85
2024/04/04 18:28:00;;;;;;;2.87;0.70;;;;;;;;;;6143821;23;20154;-85
2024/04/04 18:31:06;;;;;;;2.90;0.80;;;;;;;;;;6135171;23;20193;-85
2024/04/04 18:34:11;;;;;;;3.67;1.20;;;;;;;;;;6108148;23;20158;-86
2024/04/04 18:37:16;;;;;;;2.40;0.60;;;;;;;;;;6142389;23;20154;-85
2024/04/04 18:40:21;;;;;;;1.47;0.80;;;;;;;;;;6136035;23;20189;-86
2024/04/04 18:43:25;;;;;;;2.43;0.93;;;;;;;;;;6140468;23;20158;-85
2024/04/04 18:46:30;;;;;;;1.67;0.67;;;;;;;;;;6123636;23;20158;-86
2024/04/04 18:49:34;;;;;;;3.37;0.80;;;;;;;;;;6141216;23;20182;-85
2024/04/04 18:52:39;;;;;;;1.13;0.70;;;;;;;;;;6124078;23;20162;-86
2024/04/04 18:55:43;;;;;;;1.80;0.90;;;;;;;;;;6123994;23;20154;-87
2024/04/04 18:58:48;;;;;;;3.73;0.90;;;;;;;;;;6100752;23;20495;-85
2024/04/04 19:01:52;;;;;;;3.07;0.77;;;;;;;;;;6128338;23;20456;-86
2024/04/04 19:04:59;;;;;;;1.73;0.90;;;;;;;;;;6096829;23;20155;-86
2024/04/04 19:08:04;;;;;;;2.17;0.70;;;;;;;;;;6094456;23;20159;-86
2024/04/04 19:11:08;;;;;;;0.80;0.60;;;;;;;;;;6103987;23;20650;-86
2024/04/04 19:14:12;;;;;;;2.03;0.80;;;;;;;;;;6112002;23;20159;-86
2024/04/04 19:17:18;;;;;;;2.47;0.80;;;;;;;;;;6111622;23;20155;-86
2024/04/04 19:20:23;;;;;;;2.03;0.80;;;;;;;;;;6108622;23;20499;-85
2024/04/04 19:23:28;;;;;;;3.17;0.50;;;;;;;;;;6111491;23;20159;-85
2024/04/04 19:26:33;;;;;;;3.07;1.00;;;;;;;;;;6127998;23;20155;-86
2024/04/04 19:29:37;;;;;;;3.20;0.80;;;;;;;;;;6076285;23;20183;-85
2024/04/04 19:32:41;;;;;;;1.47;0.80;;;;;;;;;;6126972;23;20155;-85
2024/04/04 19:35:50;;;;;;;0.93;0.80;;;;;;;;;;6093466;23;20151;-86
2024/04/04 19:38:54;;;;;;;3.07;1.20;;;;;;;;;;6111046;23;20452;-85
2024/04/04 19:42:02;;;;;;;2.03;1.00;;;;;;;;;;6111495;23;20472;-85
2024/04/04 19:45:07;;;;;;;2.77;1.60;;;;;;;;;;6093153;23;20159;-85
2024/04/04 19:48:11;;;;;;;1.60;0.80;;;;;;;;;;6126982;23;20158;-85
2024/04/04 19:51:15;;;;;;;2.03;0.97;;;;;;;;;;6105085;23;20194;-85
2024/04/04 19:54:23;;;;;;;2.60;1.10;;;;;;;;;;6112624;23;20163;-87
2024/04/04 19:57:27;;;;;;;2.20;0.90;;;;;;;;;;6118832;23;20178;-85
2024/04/04 20:00:32;;;;;;;3.17;1.10;;;;;;;;;;6102240;23;20186;-85